createdAt,value
2023-04-22T00:00:49.436Z,3.20
2023-04-22T00:03:19.231Z,3.45
2023-04-22T00:05:47.489Z,4.22
2023-04-22T00:08:14.846Z,3.63
2023-04-22T00:10:42.374Z,4.07
2023-04-22T00:13:09.549Z,4.28
2023-04-22T00:15:37.100Z,4.40
2023-04-22T00:18:04.478Z,4.57
2023-04-22T00:20:33.047Z,4.45
2023-04-22T00:23:00.355Z,4.38
2023-04-22T00:25:27.803Z,6.60
2023-04-22T00:27:54.998Z,8.75
2023-04-22T00:30:22.567Z,10.70
2023-04-22T00:32:49.793Z,10.10
2023-04-22T00:35:17.329Z,7.40
2023-04-22T00:37:44.521Z,5.30
2023-04-22T00:40:12.361Z,5.13
2023-04-22T00:42:39.655Z,4.10
2023-04-22T00:45:10.967Z,3.58
2023-04-22T00:47:38.650Z,3.70
2023-04-22T00:50:07.007Z,3.53
2023-04-22T00:52:34.364Z,3.38
2023-04-22T00:55:02.403Z,2.88
2023-04-22T00:57:34.791Z,3.10
2023-04-22T01:00:02.714Z,4.07
2023-04-22T01:02:30.194Z,4.13
2023-04-22T01:04:59.267Z,5.45
2023-04-22T01:07:26.512Z,6.38
2023-04-22T01:09:54.065Z,4.47
2023-04-22T01:12:21.275Z,4.28
2023-04-22T01:14:48.974Z,4.00
2023-04-22T01:17:16.977Z,3.25
2023-04-22T01:19:44.550Z,2.65
2023-04-22T01:22:13.681Z,3.20
2023-04-22T01:24:41.669Z,2.75
2023-04-22T01:27:09.812Z,3.20
2023-04-22T01:29:38.851Z,2.67
2023-04-22T01:32:06.830Z,2.15
2023-04-22T01:34:34.751Z,2.30
2023-04-22T01:37:02.079Z,2.28
2023-04-22T01:39:30.353Z,2.38
2023-04-22T01:41:58.579Z,2.80
2023-04-22T01:44:26.862Z,3.67
2023-04-22T01:46:54.437Z,2.65
2023-04-22T01:49:21.924Z,2.33
2023-04-22T01:51:50.893Z,2.08
2023-04-22T01:54:18.537Z,1.88
2023-04-22T01:56:55.624Z,2.40
2023-04-22T01:59:23.355Z,3.05
2023-04-22T02:01:50.897Z,3.20
2023-04-22T02:04:19.255Z,3.65
2023-04-22T02:06:46.450Z,3.42
2023-04-22T02:09:14.007Z,3.90
2023-04-22T02:11:41.299Z,4.00
2023-04-22T02:14:08.812Z,4.28
2023-04-22T02:16:35.997Z,4.30
2023-04-22T02:19:03.467Z,5.30
2023-04-22T02:21:34.288Z,5.85
2023-04-22T02:24:01.857Z,6.00
2023-04-22T02:26:29.196Z,5.90
2023-04-22T02:28:56.677Z,6.30
2023-04-22T02:31:25.674Z,5.28
2023-04-22T02:33:53.329Z,6.40
2023-04-22T02:36:20.564Z,5.47
2023-04-22T02:38:49.358Z,6.65
2023-04-22T02:41:16.709Z,6.40
2023-04-22T02:43:46.334Z,6.53
2023-04-22T02:46:16.364Z,6.47
2023-04-22T02:48:44.092Z,6.90
2023-04-22T02:51:11.956Z,6.40
2023-04-22T02:53:39.463Z,6.90
2023-04-22T02:56:07.177Z,6.45
2023-04-22T02:58:34.793Z,6.85
2023-04-22T03:01:02.059Z,5.90
2023-04-22T03:03:29.778Z,5.32
2023-04-22T03:05:57.096Z,5.60
2023-04-22T03:08:25.820Z,5.43
2023-04-22T03:10:53.031Z,5.30
2023-04-22T03:13:20.648Z,4.82
2023-04-22T03:15:47.922Z,4.32
2023-04-22T03:18:16.203Z,4.82
2023-04-22T03:20:44.527Z,5.10
2023-04-22T03:23:12.018Z,4.25
2023-04-22T03:25:39.354Z,4.00
2023-04-22T03:28:07.801Z,4.32
2023-04-22T03:30:35.332Z,4.28
2023-04-22T03:33:02.874Z,4.38
2023-04-22T03:35:43.658Z,4.43
2023-04-22T03:38:12.253Z,4.38
2023-04-22T03:40:39.495Z,4.40
2023-04-22T03:43:17.969Z,3.67
2023-04-22T03:45:53.822Z,4.00
2023-04-22T03:48:25.343Z,4.25
2023-04-22T03:50:53.953Z,3.65
2023-04-22T03:55:58.513Z,4.50
2023-04-22T03:58:26.661Z,3.70
2023-04-22T04:03:28.001Z,3.90
2023-04-22T04:08:25.198Z,3.33
2023-04-22T04:10:52.533Z,3.05
2023-04-22T04:13:20.171Z,2.92
2023-04-22T04:16:16.864Z,3.33
2023-04-22T04:18:50.977Z,3.40
2023-04-22T04:21:19.601Z,3.40
2023-04-22T04:23:51.151Z,2.60
2023-04-22T04:26:22.423Z,3.03
2023-04-22T04:31:21.988Z,3.67
2023-04-22T04:33:49.550Z,3.58
2023-04-22T04:36:16.796Z,3.40
2023-04-22T04:38:44.795Z,3.10
2023-04-22T04:41:12.631Z,4.00
2023-04-22T04:43:40.786Z,3.38
2023-04-22T04:46:18.389Z,2.97
2023-04-22T04:48:48.735Z,3.10
2023-04-22T04:51:18.178Z,3.42
2023-04-22T04:53:52.726Z,3.60
2023-04-22T04:56:19.989Z,3.45
2023-04-22T04:58:48.236Z,3.17
2023-04-22T05:01:22.749Z,2.70
2023-04-22T05:03:51.436Z,3.25
2023-04-22T05:06:20.495Z,2.55
2023-04-22T05:08:52.876Z,2.33
2023-04-22T05:11:20.876Z,2.90
2023-04-22T05:13:51.297Z,1.90
2023-04-22T05:16:25.012Z,1.67
2023-04-22T05:18:53.011Z,1.50
2023-04-22T05:21:20.514Z,1.80
2023-04-22T05:23:48.284Z,1.85
2023-04-22T05:26:15.843Z,1.80
2023-04-22T05:28:44.588Z,2.30
2023-04-22T05:31:11.982Z,2.03
2023-04-22T05:33:39.477Z,2.20
2023-04-22T05:36:07.072Z,1.10
2023-04-22T05:38:35.599Z,1.50
2023-04-22T05:41:02.901Z,0.85
2023-04-22T05:43:30.737Z,1.30
2023-04-22T05:46:05.329Z,0.85
2023-04-22T05:48:35.551Z,0.85
2023-04-22T05:51:07.157Z,0.70
2023-04-22T05:53:34.803Z,0.68
2023-04-22T05:56:03.070Z,0.20
2023-04-22T05:58:30.598Z,0.20
2023-04-22T06:01:02.473Z,0.50
2023-04-22T06:03:47.288Z,0.60
2023-04-22T06:06:14.756Z,0.40
2023-04-22T06:08:42.674Z,0.38
2023-04-22T06:11:11.158Z,0.45
2023-04-22T06:13:38.726Z,0.57
2023-04-22T06:18:39.032Z,0.98
2023-04-22T06:21:11.134Z,1.27
2023-04-22T06:23:38.726Z,0.95
2023-04-22T06:26:06.057Z,1.30
2023-04-22T06:28:34.392Z,1.00
2023-04-22T06:31:06.306Z,0.50
2023-04-22T06:33:33.871Z,0.47
2023-04-22T06:36:02.463Z,0.65
2023-04-22T06:38:31.910Z,0.57
2023-04-22T06:41:17.638Z,0.30
2023-04-22T06:43:49.841Z,0.30
2023-04-22T06:46:50.312Z,0.30
2023-04-22T06:49:45.004Z,0.20
2023-04-22T06:52:35.917Z,0.40
2023-04-22T06:55:03.817Z,0.32
2023-04-22T06:57:31.693Z,0.30
2023-04-22T06:59:59.359Z,0.60
2023-04-22T07:02:28.307Z,0.50
2023-04-22T07:04:55.829Z,0.30
2023-04-22T07:07:24.271Z,0.32
2023-04-22T07:09:51.781Z,0.50
2023-04-22T07:12:19.037Z,0.30
2023-04-22T07:14:46.881Z,0.30
2023-04-22T07:17:14.108Z,0.20
2023-04-22T07:19:41.890Z,0.38
2023-04-22T07:22:09.363Z,0.40
2023-04-22T07:24:37.616Z,0.32
2023-04-22T07:27:04.964Z,0.35
2023-04-22T07:29:32.529Z,0.45
2023-04-22T07:31:59.778Z,0.57
2023-04-22T07:34:27.348Z,0.40
2023-04-22T07:36:54.540Z,0.40
2023-04-22T07:39:22.995Z,0.40
2023-04-22T07:41:50.990Z,0.40
2023-04-22T07:44:21.667Z,0.60
2023-04-22T07:46:50.369Z,0.40
2023-04-22T07:49:18.004Z,0.50
2023-04-22T07:51:45.712Z,0.32
2023-04-22T07:54:13.192Z,0.50
2023-04-22T07:56:40.424Z,0.55
2023-04-22T07:59:08.306Z,0.40
2023-04-22T08:01:35.586Z,0.40
2023-04-22T08:04:03.395Z,0.40
2023-04-22T08:06:32.060Z,0.60
2023-04-22T08:08:59.772Z,0.40
2023-04-22T08:11:27.005Z,0.43
2023-04-22T08:13:54.464Z,0.60
2023-04-22T08:16:21.979Z,0.40
2023-04-22T08:18:49.542Z,0.45
2023-04-22T08:21:16.681Z,0.30
2023-04-22T08:23:44.222Z,0.60
2023-04-22T08:26:15.181Z,0.43
2023-04-22T08:31:11.959Z,0.30
2023-04-22T08:33:42.858Z,0.32
2023-04-22T08:36:11.226Z,0.30
2023-04-22T08:38:38.983Z,0.60
2023-04-22T08:41:07.181Z,0.45
2023-04-22T08:43:35.648Z,0.35
2023-04-22T08:46:02.880Z,0.35
2023-04-22T08:48:30.831Z,0.43
2023-04-22T08:50:58.532Z,0.30
2023-04-22T08:53:26.347Z,0.30
2023-04-22T08:55:56.517Z,0.32
2023-04-22T08:58:24.399Z,0.50
2023-04-22T09:00:52.079Z,0.40
2023-04-22T09:03:20.627Z,0.63
2023-04-22T09:05:51.951Z,0.40
2023-04-22T09:08:20.347Z,0.40
2023-04-22T09:10:47.878Z,0.50
2023-04-22T09:13:16.993Z,0.30
2023-04-22T09:15:44.241Z,0.95
2023-04-22T09:18:19.565Z,0.50
2023-04-22T09:20:54.415Z,0.50
2023-04-22T09:23:22.645Z,0.70
2023-04-22T09:25:50.171Z,0.45
2023-04-22T09:28:23.625Z,0.60
2023-04-22T09:30:50.824Z,0.40
2023-04-22T09:33:18.445Z,0.32
2023-04-22T09:35:45.805Z,0.30
2023-04-22T09:38:13.687Z,0.30
2023-04-22T09:40:44.523Z,0.38
2023-04-22T09:43:12.397Z,0.60
2023-04-22T09:45:41.834Z,0.30
2023-04-22T09:48:18.503Z,0.35
2023-04-22T09:50:48.293Z,0.30
2023-04-22T09:53:18.422Z,0.60
2023-04-22T09:55:48.978Z,0.40
2023-04-22T09:58:18.770Z,0.40
2023-04-22T10:00:54.893Z,0.50
2023-04-22T10:03:23.101Z,0.30
2023-04-22T10:05:50.668Z,0.20
2023-04-22T10:08:18.767Z,0.20
2023-04-22T10:10:46.502Z,0.30
2023-04-22T10:13:14.134Z,0.40
2023-04-22T10:15:53.080Z,0.30
2023-04-22T10:18:24.508Z,0.20
2023-04-22T10:20:53.612Z,0.70
2023-04-22T10:23:24.171Z,0.63
2023-04-22T10:25:54.697Z,0.90
2023-04-22T10:28:23.816Z,1.17
2023-04-22T10:30:51.212Z,0.88
2023-04-22T10:33:21.874Z,0.40
2023-04-22T10:36:08.730Z,0.40
2023-04-22T10:38:55.225Z,0.38
2023-04-22T10:41:29.510Z,0.65
2023-04-22T10:44:08.093Z,0.20
2023-04-22T10:46:37.520Z,0.30
2023-04-22T10:49:11.819Z,2.00
2023-04-22T10:51:43.557Z,0.40
2023-04-22T10:54:37.150Z,0.35
2023-04-22T10:57:09.554Z,0.40
2023-04-22T10:59:49.523Z,0.28
2023-04-22T11:02:18.512Z,0.30
2023-04-22T11:04:46.395Z,0.20
2023-04-22T11:07:17.077Z,0.20
2023-04-22T11:09:46.451Z,0.40
2023-04-22T11:12:35.413Z,0.50
2023-04-22T11:15:06.317Z,0.30
2023-04-22T11:17:34.348Z,0.20
2023-04-22T11:20:02.976Z,0.35
2023-04-22T11:22:38.289Z,0.20
2023-04-22T11:25:06.779Z,0.30
2023-04-22T11:27:34.003Z,0.40
2023-04-22T11:30:13.000Z,0.28
2023-04-22T11:32:48.010Z,0.30
2023-04-22T11:35:19.663Z,0.30
2023-04-22T11:37:49.791Z,0.80
2023-04-22T11:42:50.896Z,0.40
2023-04-22T11:45:18.623Z,0.35
2023-04-22T11:47:50.400Z,0.32
2023-04-22T11:50:22.196Z,0.20
2023-04-22T11:53:13.168Z,0.32
2023-04-22T11:55:42.076Z,0.30
2023-04-22T11:58:17.721Z,0.30
2023-04-22T12:00:50.486Z,0.30
2023-04-22T12:03:24.349Z,0.30
2023-04-22T12:06:01.268Z,0.40
2023-04-22T12:08:39.805Z,0.35
2023-04-22T12:11:10.637Z,0.90
2023-04-22T12:13:37.854Z,0.50
2023-04-22T12:16:10.138Z,0.60
2023-04-22T12:18:40.534Z,0.70
2023-04-22T12:21:07.994Z,0.60
2023-04-22T12:23:42.572Z,1.05
2023-04-22T12:26:10.757Z,0.88
2023-04-22T12:28:39.255Z,1.00
2023-04-22T12:31:07.713Z,1.60
2023-04-22T12:33:36.442Z,1.30
2023-04-22T12:36:05.082Z,0.90
2023-04-22T12:38:32.579Z,1.00
2023-04-22T12:41:00.257Z,1.10
2023-04-22T12:43:27.481Z,1.30
2023-04-22T12:45:55.190Z,1.83
2023-04-22T12:48:22.509Z,1.60
2023-04-22T12:50:50.165Z,1.63
2023-04-22T12:53:17.477Z,1.75
2023-04-22T12:55:46.204Z,1.67
2023-04-22T12:58:13.562Z,1.20
2023-04-22T13:00:41.167Z,1.23
2023-04-22T13:03:08.494Z,1.65
2023-04-22T13:05:36.327Z,1.50
2023-04-22T13:08:07.760Z,1.33
2023-04-22T13:10:36.184Z,1.40
2023-04-22T13:15:39.045Z,1.10
2023-04-22T13:18:06.648Z,1.00
2023-04-22T13:20:34.310Z,1.13
2023-04-22T13:23:02.461Z,1.65
2023-04-22T13:25:30.086Z,1.10
2023-04-22T13:27:57.273Z,1.40
2023-04-22T13:30:24.881Z,1.88
2023-04-22T13:32:52.164Z,1.60
2023-04-22T13:35:19.826Z,1.25
2023-04-22T13:37:47.235Z,1.50
2023-04-22T13:40:15.413Z,1.38
2023-04-22T13:42:44.460Z,1.48
2023-04-22T13:45:12.035Z,1.30
2023-04-22T13:47:39.242Z,0.75
2023-04-22T13:50:07.656Z,1.13
2023-04-22T13:52:35.300Z,1.00
2023-04-22T13:55:04.139Z,0.85
2023-04-22T13:57:32.120Z,1.13
2023-04-22T14:00:00.071Z,1.17
2023-04-22T14:02:27.433Z,1.17
2023-04-22T14:04:55.031Z,1.10
2023-04-22T14:07:22.298Z,1.10
2023-04-22T14:09:49.736Z,1.42
2023-04-22T14:12:17.042Z,1.60
2023-04-22T14:14:44.718Z,2.60
2023-04-22T14:17:11.987Z,1.98
2023-04-22T14:19:40.206Z,2.50
2023-04-22T14:22:07.772Z,2.13
2023-04-22T14:24:35.259Z,1.65
2023-04-22T14:27:02.608Z,1.30
2023-04-22T14:29:31.032Z,2.00
2023-04-22T14:31:58.585Z,3.67
2023-04-22T14:34:27.386Z,3.28
2023-04-22T14:36:54.798Z,1.65
2023-04-22T14:39:22.379Z,1.60
2023-04-22T14:41:49.665Z,1.83
2023-04-22T14:44:17.387Z,1.42
2023-04-22T14:46:45.340Z,1.90
2023-04-22T14:49:12.831Z,1.67
2023-04-22T14:51:40.140Z,1.77
2023-04-22T14:54:07.775Z,3.50
2023-04-22T14:56:35.141Z,1.95
2023-04-22T14:59:02.679Z,1.60
2023-04-22T15:01:31.158Z,3.03
2023-04-22T15:03:59.084Z,2.33
2023-04-22T15:06:27.634Z,2.90
2023-04-22T15:08:55.956Z,1.50
2023-04-22T15:11:23.253Z,1.48
2023-04-22T15:13:50.927Z,4.50
2023-04-22T15:16:18.264Z,5.13
2023-04-22T15:18:45.802Z,2.17
2023-04-22T15:21:13.081Z,3.80
2023-04-22T15:23:40.759Z,1.98
2023-04-22T15:26:07.979Z,2.10
2023-04-22T15:28:35.813Z,2.53
2023-04-22T15:31:03.374Z,3.30
2023-04-22T15:33:31.042Z,5.13
2023-04-22T15:35:58.368Z,6.30
2023-04-22T15:38:25.997Z,6.93
2023-04-22T15:40:53.216Z,4.40
2023-04-22T15:43:20.723Z,4.15
2023-04-22T15:45:47.948Z,3.42
2023-04-22T15:48:15.614Z,3.10
2023-04-22T15:50:42.860Z,3.35
2023-04-22T15:53:10.480Z,3.47
2023-04-22T15:55:38.056Z,3.08
2023-04-22T15:58:05.511Z,2.08
2023-04-22T16:00:32.706Z,2.05
2023-04-22T16:03:00.380Z,1.95
2023-04-22T16:05:28.793Z,4.38
2023-04-22T16:07:56.553Z,3.65
2023-04-22T16:10:26.340Z,5.72
2023-04-22T16:12:53.958Z,3.35
2023-04-22T16:15:23.634Z,4.53
2023-04-22T16:17:51.408Z,4.40
2023-04-22T16:20:18.688Z,4.28
2023-04-22T16:22:46.335Z,7.68
2023-04-22T16:25:13.573Z,7.78
2023-04-22T16:27:41.171Z,6.60
2023-04-22T16:30:08.869Z,6.45
2023-04-22T16:32:36.567Z,6.53
2023-04-22T16:35:04.508Z,5.10
2023-04-22T16:37:34.174Z,8.13
2023-04-22T16:40:01.520Z,7.55
2023-04-22T16:42:29.448Z,8.27
2023-04-22T16:44:56.659Z,5.38
2023-04-22T16:47:24.428Z,6.00
2023-04-22T16:49:51.652Z,6.78
2023-04-22T16:52:19.358Z,5.72
2023-04-22T16:54:46.618Z,5.47
2023-04-22T16:57:14.192Z,4.83
2023-04-22T16:59:41.698Z,4.53
2023-04-22T17:02:09.500Z,4.40
2023-04-22T17:04:36.877Z,3.85
2023-04-22T17:07:04.865Z,3.88
2023-04-22T17:09:33.177Z,3.70
2023-04-22T17:12:01.737Z,3.13
2023-04-22T17:14:29.039Z,3.13
2023-04-22T17:16:56.682Z,2.90
2023-04-22T17:19:24.992Z,2.67
2023-04-22T17:21:52.829Z,3.03
2023-04-22T17:24:22.293Z,3.13
2023-04-22T17:26:49.972Z,2.70
2023-04-22T17:29:21.549Z,3.00
2023-04-22T17:31:50.744Z,3.08
2023-04-22T17:34:18.057Z,2.80
2023-04-22T17:36:45.687Z,2.97
2023-04-22T17:39:14.038Z,2.97
2023-04-22T17:41:41.679Z,3.08
2023-04-22T17:44:09.340Z,3.58
2023-04-22T17:46:36.912Z,3.08
2023-04-22T17:49:04.265Z,3.20
2023-04-22T17:51:32.478Z,3.22
2023-04-22T17:54:01.136Z,3.67
2023-04-22T17:56:28.711Z,3.58
2023-04-22T17:58:55.897Z,3.42
2023-04-22T18:01:23.447Z,3.65
2023-04-22T18:03:51.241Z,2.92
2023-04-22T18:06:18.988Z,2.80
2023-04-22T18:08:46.282Z,3.20
2023-04-22T18:11:14.088Z,3.13
2023-04-22T18:13:41.361Z,3.40
2023-04-22T18:16:09.002Z,3.03
2023-04-22T18:18:36.500Z,3.20
2023-04-22T18:21:04.116Z,2.90
2023-04-22T18:23:31.333Z,2.65
2023-04-22T18:25:58.767Z,3.35
2023-04-22T18:28:26.039Z,3.90
2023-04-22T18:30:53.569Z,3.90
2023-04-22T18:33:20.865Z,3.53
2023-04-22T18:35:48.442Z,3.55
2023-04-22T18:38:15.713Z,3.60
2023-04-22T18:40:43.242Z,3.60
2023-04-22T18:43:10.598Z,3.42
2023-04-22T18:45:38.106Z,3.90
2023-04-22T18:48:05.579Z,5.60
2023-04-22T18:50:33.053Z,4.20
2023-04-22T18:53:00.229Z,4.28
2023-04-22T18:55:27.742Z,3.90
2023-04-22T18:57:55.134Z,4.38
2023-04-22T19:00:22.754Z,4.65
2023-04-22T19:02:50.347Z,5.03
2023-04-22T19:05:18.207Z,4.55
2023-04-22T19:07:45.689Z,4.20
2023-04-22T19:10:13.203Z,4.13
2023-04-22T19:12:40.539Z,3.95
2023-04-22T19:15:08.824Z,4.13
2023-04-22T19:17:36.140Z,3.85
2023-04-22T19:20:05.337Z,4.15
2023-04-22T19:22:32.726Z,4.32
2023-04-22T19:25:01.139Z,5.00
2023-04-22T19:27:28.641Z,4.55
2023-04-22T19:29:56.177Z,4.65
2023-04-22T19:32:23.519Z,4.30
2023-04-22T19:34:51.104Z,4.60
2023-04-22T19:37:18.628Z,4.60
2023-04-22T19:39:46.170Z,4.40
2023-04-22T19:42:13.470Z,3.50
2023-04-22T19:44:46.793Z,4.03
2023-04-22T19:47:15.356Z,3.80
2023-04-22T19:49:43.307Z,3.63
2023-04-22T19:52:11.898Z,3.72
2023-04-22T19:54:41.510Z,4.13
2023-04-22T19:57:11.600Z,3.53
2023-04-22T19:59:42.572Z,3.70
2023-04-22T20:02:10.403Z,2.50
2023-04-22T20:04:38.420Z,2.70
2023-04-22T20:07:07.134Z,2.35
2023-04-22T20:09:35.268Z,2.67
2023-04-22T20:12:03.493Z,2.75
2023-04-22T20:14:32.138Z,2.83
2023-04-22T20:16:59.541Z,2.75
2023-04-22T20:19:28.449Z,2.58
2023-04-22T20:21:57.416Z,2.72
2023-04-22T20:24:27.512Z,2.70
2023-04-22T20:26:56.366Z,2.80
2023-04-22T20:29:24.306Z,2.85
2023-04-22T20:31:51.824Z,2.75
2023-04-22T20:34:19.598Z,2.80
2023-04-22T20:36:47.216Z,3.20
2023-04-22T20:39:15.763Z,3.30
2023-04-22T20:41:43.393Z,2.67
2023-04-22T20:44:10.931Z,3.70
2023-04-22T20:46:38.950Z,3.38
2023-04-22T20:49:07.173Z,3.53
2023-04-22T20:51:34.412Z,4.00
2023-04-22T20:54:01.904Z,3.45
2023-04-22T20:56:29.073Z,3.60
2023-04-22T20:58:56.573Z,3.47
2023-04-22T21:01:24.491Z,3.88
2023-04-22T21:03:52.989Z,3.50
2023-04-22T21:06:21.303Z,3.88
2023-04-22T21:08:49.691Z,3.90
2023-04-22T21:11:17.653Z,3.50
2023-04-22T21:13:45.487Z,3.15
2023-04-22T21:16:15.763Z,3.42
2023-04-22T21:18:44.694Z,3.85
2023-04-22T21:21:14.082Z,3.38
2023-04-22T21:23:42.293Z,3.50
2023-04-22T21:26:10.638Z,3.92
2023-04-22T21:28:39.226Z,3.40
2023-04-22T21:31:07.031Z,3.17
2023-04-22T21:33:34.647Z,3.00
2023-04-22T21:36:02.056Z,3.08
2023-04-22T21:38:29.623Z,3.30
2023-04-22T21:40:56.882Z,2.92
2023-04-22T21:43:24.336Z,4.97
2023-04-22T21:45:51.555Z,3.20
2023-04-22T21:48:19.016Z,3.17
2023-04-22T21:50:46.235Z,3.92
2023-04-22T21:53:13.865Z,4.38
2023-04-22T21:55:41.122Z,3.88
2023-04-22T21:58:08.701Z,3.92
2023-04-22T22:00:37.798Z,3.53
2023-04-22T22:03:06.304Z,3.10
2023-04-22T22:05:33.746Z,3.72
2023-04-22T22:08:01.912Z,3.67
2023-04-22T22:10:29.291Z,3.35
2023-04-22T22:12:56.796Z,4.90
2023-04-22T22:15:23.969Z,4.53
2023-04-22T22:17:52.165Z,4.28
2023-04-22T22:20:22.312Z,3.80
2023-04-22T22:22:49.855Z,3.72
2023-04-22T22:25:17.221Z,4.25
2023-04-22T22:27:49.391Z,3.85
2023-04-22T22:32:46.525Z,4.80
2023-04-22T22:35:13.908Z,4.95
2023-04-22T22:37:41.444Z,4.82
2023-04-22T22:40:09.197Z,4.78
2023-04-22T22:42:36.674Z,5.07
2023-04-22T22:45:05.313Z,4.97
2023-04-22T22:47:33.220Z,5.30
2023-04-22T22:50:00.627Z,5.03
2023-04-22T22:52:28.255Z,4.80
2023-04-22T22:54:55.570Z,4.68
2023-04-22T22:57:23.170Z,5.20
2023-04-22T22:59:50.687Z,5.45
2023-04-22T23:02:18.476Z,5.05
2023-04-22T23:04:46.227Z,5.38
2023-04-22T23:07:14.797Z,5.45
2023-04-22T23:09:42.191Z,5.20
2023-04-22T23:12:09.716Z,5.25
2023-04-22T23:14:36.900Z,4.60
2023-04-22T23:17:04.519Z,5.20
2023-04-22T23:19:32.662Z,4.75
2023-04-22T23:22:01.063Z,5.30
2023-04-22T23:24:28.435Z,4.88
2023-04-22T23:26:57.398Z,4.85
2023-04-22T23:29:24.930Z,5.00
2023-04-22T23:31:52.959Z,4.72
2023-04-22T23:34:23.950Z,5.47
2023-04-22T23:36:52.920Z,5.60
2023-04-22T23:39:20.298Z,4.95
2023-04-22T23:41:47.756Z,5.43
2023-04-22T23:44:15.071Z,5.00
2023-04-22T23:46:42.768Z,6.70
2023-04-22T23:49:10.034Z,5.13
2023-04-22T23:51:38.368Z,4.45
2023-04-22T23:54:05.726Z,4.97
2023-04-22T23:56:33.522Z,4.50
2023-04-22T23:59:00.923Z,4.57
